CheckWX is a tool to help pilots better visualize weather data.  It is not intended as a substitute for an official pre-flight weather briefing.

02:47:24 UTC

KDVT METAR
Phoenix Deer Valley Airport
Phoenix, Arizona, USA
Current

54 mins ago

KDVT 210153Z 24006KT 10SM CLR 31/00 A2977 RMK AO2 SLP059 T03060000
Observed
Sep-21 @ 01:53 UTC
Wind
  • 240° at 6 KTS
Visibility
10 SM
Flight Rules
VFR
Cloud Levels
  • Clear skies
Temperature
31°C / 88°F
Dewpoint
C / 32°F
Humidity
13%
Altimeter
29.77" Hg
Pressure
1008.12 hPa
Previous

2 hours ago

KDVT 210053Z 23009G16KT 10SM CLR 32/01 A2977 RMK AO2 SLP059 T03170006
Observed
Sep-21 @ 00:53 UTC
Wind
  • 230° at 9 KTS
  • Gusting to 16 KTS
Visibility
10 SM
Flight Rules
VFR
Cloud Levels
  • Clear skies
Temperature
32°C / 90°F
Dewpoint
C / 34°F
Humidity
14%
Altimeter
29.77" Hg
Pressure
1008.12 hPa
Previous

3 hours ago

KDVT 202353Z 21006G15KT 10SM CLR 33/01 A2978 RMK AO2 SLP059 T03280006 10339 20294 56008
Observed
Sep-20 @ 23:53 UTC
Wind
  • 210° at 6 KTS
  • Gusting to 15 KTS
Visibility
10 SM
Flight Rules
VFR
Cloud Levels
  • Clear skies
Temperature
33°C / 91°F
Dewpoint
C / 34°F
Humidity
13%
Altimeter
29.78" Hg
Pressure
1008.42 hPa